sensor_id;sensor_type;location;lat;lon;timestamp;P1;durP1;ratioP1;P2;durP2;ratioP2
15116;SDS011;7659;51.038;13.786;2022-08-05T00:00:59;16.30;;;15.40;;
15116;SDS011;7659;51.038;13.786;2022-08-05T00:03:25;15.90;;;14.55;;
15116;SDS011;7659;51.038;13.786;2022-08-05T00:05:50;16.60;;;15.40;;
15116;SDS011;7659;51.038;13.786;2022-08-05T00:08:15;16.77;;;15.27;;
15116;SDS011;7659;51.038;13.786;2022-08-05T00:10:41;16.67;;;15.50;;
15116;SDS011;7659;51.038;13.786;2022-08-05T00:13:07;16.08;;;15.27;;
15116;SDS011;7659;51.038;13.786;2022-08-05T00:15:32;16.30;;;15.25;;
15116;SDS011;7659;51.038;13.786;2022-08-05T00:17:58;16.38;;;15.38;;
15116;SDS011;7659;51.038;13.786;2022-08-05T00:20:23;16.65;;;15.45;;
15116;SDS011;7659;51.038;13.786;2022-08-05T00:22:49;17.02;;;15.60;;
15116;SDS011;7659;51.038;13.786;2022-08-05T00:25:14;17.13;;;15.80;;
15116;SDS011;7659;51.038;13.786;2022-08-05T00:27:39;15.55;;;14.45;;
15116;SDS011;7659;51.038;13.786;2022-08-05T00:30:05;16.88;;;15.68;;
15116;SDS011;7659;51.038;13.786;2022-08-05T00:32:31;16.30;;;15.07;;
15116;SDS011;7659;51.038;13.786;2022-08-05T00:34:56;16.80;;;15.60;;
15116;SDS011;7659;51.038;13.786;2022-08-05T00:37:22;17.33;;;16.23;;
15116;SDS011;7659;51.038;13.786;2022-08-05T00:39:47;16.33;;;15.43;;
15116;SDS011;7659;51.038;13.786;2022-08-05T00:42:13;17.00;;;15.48;;
15116;SDS011;7659;51.038;13.786;2022-08-05T00:44:41;16.58;;;15.45;;
15116;SDS011;7659;51.038;13.786;2022-08-05T00:47:06;16.50;;;15.13;;
15116;SDS011;7659;51.038;13.786;2022-08-05T00:49:32;16.10;;;15.00;;
15116;SDS011;7659;51.038;13.786;2022-08-05T00:51:57;16.08;;;15.18;;
15116;SDS011;7659;51.038;13.786;2022-08-05T00:54:22;16.40;;;15.43;;
15116;SDS011;7659;51.038;13.786;2022-08-05T00:56:48;17.52;;;16.48;;
15116;SDS011;7659;51.038;13.786;2022-08-05T00:59:13;17.88;;;16.17;;
15116;SDS011;7659;51.038;13.786;2022-08-05T01:01:39;16.50;;;15.32;;
15116;SDS011;7659;51.038;13.786;2022-08-05T01:04:04;15.65;;;14.85;;
15116;SDS011;7659;51.038;13.786;2022-08-05T01:06:30;17.63;;;16.27;;
15116;SDS011;7659;51.038;13.786;2022-08-05T01:08:55;16.27;;;15.25;;
15116;SDS011;7659;51.038;13.786;2022-08-05T01:11:22;15.20;;;14.20;;
15116;SDS011;7659;51.038;13.786;2022-08-05T01:16:34;15.48;;;14.43;;
15116;SDS011;7659;51.038;13.786;2022-08-05T01:19:07;16.10;;;14.82;;
15116;SDS011;7659;51.038;13.786;2022-08-05T01:24:14;16.15;;;15.05;;
15116;SDS011;7659;51.038;13.786;2022-08-05T01:26:53;16.23;;;15.32;;
15116;SDS011;7659;51.038;13.786;2022-08-05T01:29:26;16.15;;;15.25;;
15116;SDS011;7659;51.038;13.786;2022-08-05T01:31:54;16.88;;;15.05;;
15116;SDS011;7659;51.038;13.786;2022-08-05T01:34:40;16.17;;;15.02;;
15116;SDS011;7659;51.038;13.786;2022-08-05T01:39:33;16.35;;;15.23;;
15116;SDS011;7659;51.038;13.786;2022-08-05T01:42:00;17.67;;;16.27;;
15116;SDS011;7659;51.038;13.786;2022-08-05T01:44:27;16.60;;;15.60;;
15116;SDS011;7659;51.038;13.786;2022-08-05T01:46:54;17.73;;;16.60;;
15116;SDS011;7659;51.038;13.786;2022-08-05T01:49:21;16.67;;;15.57;;
15116;SDS011;7659;51.038;13.786;2022-08-05T01:51:47;17.48;;;16.10;;
15116;SDS011;7659;51.038;13.786;2022-08-05T01:54:13;17.83;;;16.73;;
15116;SDS011;7659;51.038;13.786;2022-08-05T01:56:40;17.15;;;16.15;;
15116;SDS011;7659;51.038;13.786;2022-08-05T01:59:07;18.02;;;16.77;;
15116;SDS011;7659;51.038;13.786;2022-08-05T02:01:34;16.92;;;15.85;;
15116;SDS011;7659;51.038;13.786;2022-08-05T02:03:59;17.60;;;16.35;;
15116;SDS011;7659;51.038;13.786;2022-08-05T02:06:25;18.88;;;17.73;;
15116;SDS011;7659;51.038;13.786;2022-08-05T02:08:51;17.13;;;15.95;;
15116;SDS011;7659;51.038;13.786;2022-08-05T02:11:17;17.33;;;16.00;;
15116;SDS011;7659;51.038;13.786;2022-08-05T02:13:53;17.15;;;16.23;;
15116;SDS011;7659;51.038;13.786;2022-08-05T02:16:30;19.02;;;17.58;;
15116;SDS011;7659;51.038;13.786;2022-08-05T02:19:02;17.95;;;16.75;;
15116;SDS011;7659;51.038;13.786;2022-08-05T02:21:30;17.42;;;16.38;;
15116;SDS011;7659;51.038;13.786;2022-08-05T02:23:58;18.67;;;17.33;;
15116;SDS011;7659;51.038;13.786;2022-08-05T02:26:27;18.00;;;16.88;;
15116;SDS011;7659;51.038;13.786;2022-08-05T02:28:58;17.92;;;16.75;;
15116;SDS011;7659;51.038;13.786;2022-08-05T02:31:25;17.67;;;16.48;;
15116;SDS011;7659;51.038;13.786;2022-08-05T02:33:56;16.27;;;15.23;;
15116;SDS011;7659;51.038;13.786;2022-08-05T02:36:22;18.00;;;16.83;;
15116;SDS011;7659;51.038;13.786;2022-08-05T02:38:48;19.15;;;17.60;;
15116;SDS011;7659;51.038;13.786;2022-08-05T02:41:15;17.88;;;16.88;;
15116;SDS011;7659;51.038;13.786;2022-08-05T02:43:41;18.33;;;17.02;;
15116;SDS011;7659;51.038;13.786;2022-08-05T02:46:07;17.80;;;16.70;;
15116;SDS011;7659;51.038;13.786;2022-08-05T02:48:33;18.55;;;17.42;;
15116;SDS011;7659;51.038;13.786;2022-08-05T02:50:59;17.55;;;16.27;;
15116;SDS011;7659;51.038;13.786;2022-08-05T02:53:26;17.67;;;16.58;;
15116;SDS011;7659;51.038;13.786;2022-08-05T02:55:51;18.92;;;17.48;;
15116;SDS011;7659;51.038;13.786;2022-08-05T02:58:20;17.40;;;16.10;;
15116;SDS011;7659;51.038;13.786;2022-08-05T03:00:46;17.58;;;16.23;;
15116;SDS011;7659;51.038;13.786;2022-08-05T03:03:13;18.58;;;17.33;;
15116;SDS011;7659;51.038;13.786;2022-08-05T03:05:40;18.70;;;16.98;;
15116;SDS011;7659;51.038;13.786;2022-08-05T03:08:06;17.90;;;16.88;;
15116;SDS011;7659;51.038;13.786;2022-08-05T03:10:33;17.23;;;16.02;;
15116;SDS011;7659;51.038;13.786;2022-08-05T03:12:59;17.83;;;16.83;;
15116;SDS011;7659;51.038;13.786;2022-08-05T03:15:24;18.42;;;17.15;;
15116;SDS011;7659;51.038;13.786;2022-08-05T03:17:52;19.73;;;18.08;;
15116;SDS011;7659;51.038;13.786;2022-08-05T03:20:19;18.48;;;17.08;;
15116;SDS011;7659;51.038;13.786;2022-08-05T03:22:44;18.55;;;17.20;;
15116;SDS011;7659;51.038;13.786;2022-08-05T03:25:10;18.33;;;17.02;;
15116;SDS011;7659;51.038;13.786;2022-08-05T03:27:36;19.42;;;18.08;;
15116;SDS011;7659;51.038;13.786;2022-08-05T03:30:02;17.92;;;16.40;;
15116;SDS011;7659;51.038;13.786;2022-08-05T03:32:28;17.95;;;16.73;;
15116;SDS011;7659;51.038;13.786;2022-08-05T03:34:54;19.15;;;17.45;;
15116;SDS011;7659;51.038;13.786;2022-08-05T03:37:19;18.48;;;17.00;;
15116;SDS011;7659;51.038;13.786;2022-08-05T03:39:53;17.90;;;16.80;;
15116;SDS011;7659;51.038;13.786;2022-08-05T03:42:18;18.13;;;16.73;;
15116;SDS011;7659;51.038;13.786;2022-08-05T03:44:44;18.00;;;16.73;;
15116;SDS011;7659;51.038;13.786;2022-08-05T03:47:09;18.73;;;17.42;;
15116;SDS011;7659;51.038;13.786;2022-08-05T03:49:35;18.30;;;17.13;;
15116;SDS011;7659;51.038;13.786;2022-08-05T03:52:01;19.52;;;17.30;;
15116;SDS011;7659;51.038;13.786;2022-08-05T03:54:29;19.23;;;17.40;;
15116;SDS011;7659;51.038;13.786;2022-08-05T03:56:55;18.27;;;16.88;;
15116;SDS011;7659;51.038;13.786;2022-08-05T03:59:24;18.85;;;17.65;;
15116;SDS011;7659;51.038;13.786;2022-08-05T04:01:51;19.83;;;18.25;;
15116;SDS011;7659;51.038;13.786;2022-08-05T04:04:18;19.67;;;18.50;;
15116;SDS011;7659;51.038;13.786;2022-08-05T04:06:44;19.40;;;18.02;;
15116;SDS011;7659;51.038;13.786;2022-08-05T04:09:10;18.08;;;16.67;;
15116;SDS011;7659;51.038;13.786;2022-08-05T04:11:36;17.30;;;15.98;;
15116;SDS011;7659;51.038;13.786;2022-08-05T04:14:02;18.33;;;17.00;;
15116;SDS011;7659;51.038;13.786;2022-08-05T04:16:28;17.90;;;16.67;;
15116;SDS011;7659;51.038;13.786;2022-08-05T04:18:54;18.95;;;17.40;;
15116;SDS011;7659;51.038;13.786;2022-08-05T04:21:19;19.38;;;18.05;;
15116;SDS011;7659;51.038;13.786;2022-08-05T04:23:45;17.63;;;16.27;;
15116;SDS011;7659;51.038;13.786;2022-08-05T04:26:11;18.33;;;16.85;;
15116;SDS011;7659;51.038;13.786;2022-08-05T04:28:37;17.88;;;16.77;;
15116;SDS011;7659;51.038;13.786;2022-08-05T04:31:02;19.63;;;18.33;;
15116;SDS011;7659;51.038;13.786;2022-08-05T04:33:28;18.02;;;16.63;;
15116;SDS011;7659;51.038;13.786;2022-08-05T04:35:54;17.73;;;16.42;;
15116;SDS011;7659;51.038;13.786;2022-08-05T04:38:19;18.55;;;17.05;;
15116;SDS011;7659;51.038;13.786;2022-08-05T04:40:45;18.15;;;16.38;;
15116;SDS011;7659;51.038;13.786;2022-08-05T04:43:10;17.38;;;16.05;;
15116;SDS011;7659;51.038;13.786;2022-08-05T04:45:36;17.13;;;15.82;;
15116;SDS011;7659;51.038;13.786;2022-08-05T04:48:02;18.60;;;16.75;;
15116;SDS011;7659;51.038;13.786;2022-08-05T04:50:28;18.30;;;16.90;;
15116;SDS011;7659;51.038;13.786;2022-08-05T04:52:58;18.85;;;17.30;;
15116;SDS011;7659;51.038;13.786;2022-08-05T04:55:24;19.73;;;17.85;;
15116;SDS011;7659;51.038;13.786;2022-08-05T04:57:49;19.30;;;17.88;;
15116;SDS011;7659;51.038;13.786;2022-08-05T05:00:15;19.35;;;17.55;;
15116;SDS011;7659;51.038;13.786;2022-08-05T05:02:40;23.17;;;21.48;;
15116;SDS011;7659;51.038;13.786;2022-08-05T05:05:06;19.08;;;17.77;;
15116;SDS011;7659;51.038;13.786;2022-08-05T05:07:31;19.92;;;18.63;;
15116;SDS011;7659;51.038;13.786;2022-08-05T05:09:57;20.42;;;19.13;;
15116;SDS011;7659;51.038;13.786;2022-08-05T05:12:22;20.42;;;18.88;;
15116;SDS011;7659;51.038;13.786;2022-08-05T05:14:48;18.80;;;17.38;;
15116;SDS011;7659;51.038;13.786;2022-08-05T05:17:13;19.73;;;18.33;;
15116;SDS011;7659;51.038;13.786;2022-08-05T05:19:39;19.65;;;17.92;;
15116;SDS011;7659;51.038;13.786;2022-08-05T05:22:05;20.08;;;18.67;;
15116;SDS011;7659;51.038;13.786;2022-08-05T05:24:31;19.92;;;18.23;;
15116;SDS011;7659;51.038;13.786;2022-08-05T05:26:56;19.83;;;18.20;;
15116;SDS011;7659;51.038;13.786;2022-08-05T05:29:22;19.27;;;17.80;;
15116;SDS011;7659;51.038;13.786;2022-08-05T05:31:47;19.20;;;17.25;;
15116;SDS011;7659;51.038;13.786;2022-08-05T05:34:12;19.33;;;17.55;;
15116;SDS011;7659;51.038;13.786;2022-08-05T05:36:38;17.25;;;16.17;;
15116;SDS011;7659;51.038;13.786;2022-08-05T05:39:03;19.42;;;17.92;;
15116;SDS011;7659;51.038;13.786;2022-08-05T05:41:29;19.92;;;18.48;;
15116;SDS011;7659;51.038;13.786;2022-08-05T05:43:54;20.55;;;18.77;;
15116;SDS011;7659;51.038;13.786;2022-08-05T05:46:20;19.55;;;17.92;;
15116;SDS011;7659;51.038;13.786;2022-08-05T05:48:45;18.98;;;17.75;;
15116;SDS011;7659;51.038;13.786;2022-08-05T05:51:16;24.83;;;19.20;;
15116;SDS011;7659;51.038;13.786;2022-08-05T05:53:42;21.25;;;19.70;;
15116;SDS011;7659;51.038;13.786;2022-08-05T05:56:07;21.35;;;19.70;;
15116;SDS011;7659;51.038;13.786;2022-08-05T05:58:33;19.73;;;18.38;;
15116;SDS011;7659;51.038;13.786;2022-08-05T06:00:59;20.45;;;19.02;;
15116;SDS011;7659;51.038;13.786;2022-08-05T06:03:24;19.38;;;17.95;;
15116;SDS011;7659;51.038;13.786;2022-08-05T06:05:50;20.02;;;18.70;;
15116;SDS011;7659;51.038;13.786;2022-08-05T06:08:15;21.42;;;19.73;;
15116;SDS011;7659;51.038;13.786;2022-08-05T06:10:41;65.68;;;22.73;;
15116;SDS011;7659;51.038;13.786;2022-08-05T06:13:06;135.43;;;26.92;;
15116;SDS011;7659;51.038;13.786;2022-08-05T06:15:32;48.55;;;21.83;;
15116;SDS011;7659;51.038;13.786;2022-08-05T06:17:57;23.52;;;21.23;;
15116;SDS011;7659;51.038;13.786;2022-08-05T06:20:23;22.17;;;20.52;;
15116;SDS011;7659;51.038;13.786;2022-08-05T06:22:48;21.50;;;20.00;;
15116;SDS011;7659;51.038;13.786;2022-08-05T06:25:14;212.15;;;30.77;;
15116;SDS011;7659;51.038;13.786;2022-08-05T06:27:39;104.95;;;23.83;;
15116;SDS011;7659;51.038;13.786;2022-08-05T06:30:06;23.05;;;20.67;;
15116;SDS011;7659;51.038;13.786;2022-08-05T06:32:31;22.48;;;20.40;;
15116;SDS011;7659;51.038;13.786;2022-08-05T06:34:57;21.23;;;19.50;;
15116;SDS011;7659;51.038;13.786;2022-08-05T06:37:26;20.42;;;18.15;;
15116;SDS011;7659;51.038;13.786;2022-08-05T06:39:52;32.83;;;18.55;;
15116;SDS011;7659;51.038;13.786;2022-08-05T06:42:17;20.25;;;18.40;;
15116;SDS011;7659;51.038;13.786;2022-08-05T06:44:43;20.90;;;19.17;;
15116;SDS011;7659;51.038;13.786;2022-08-05T06:47:08;20.40;;;19.10;;
15116;SDS011;7659;51.038;13.786;2022-08-05T06:49:34;19.40;;;17.85;;
15116;SDS011;7659;51.038;13.786;2022-08-05T06:52:00;19.40;;;17.73;;
15116;SDS011;7659;51.038;13.786;2022-08-05T06:54:25;21.17;;;17.17;;
15116;SDS011;7659;51.038;13.786;2022-08-05T06:56:51;17.70;;;16.02;;
15116;SDS011;7659;51.038;13.786;2022-08-05T06:59:16;17.17;;;15.88;;
15116;SDS011;7659;51.038;13.786;2022-08-05T07:01:42;17.42;;;15.80;;
15116;SDS011;7659;51.038;13.786;2022-08-05T07:04:07;15.88;;;14.60;;
15116;SDS011;7659;51.038;13.786;2022-08-05T07:06:33;21.33;;;15.30;;
15116;SDS011;7659;51.038;13.786;2022-08-05T07:08:59;16.55;;;14.13;;
15116;SDS011;7659;51.038;13.786;2022-08-05T07:11:25;16.77;;;15.23;;
15116;SDS011;7659;51.038;13.786;2022-08-05T07:13:52;15.93;;;13.43;;
15116;SDS011;7659;51.038;13.786;2022-08-05T07:16:37;18.88;;;14.48;;
15116;SDS011;7659;51.038;13.786;2022-08-05T07:19:18;18.13;;;14.95;;
15116;SDS011;7659;51.038;13.786;2022-08-05T07:21:45;19.02;;;15.10;;
15116;SDS011;7659;51.038;13.786;2022-08-05T07:24:11;16.60;;;15.02;;
15116;SDS011;7659;51.038;13.786;2022-08-05T07:26:36;16.30;;;14.55;;
15116;SDS011;7659;51.038;13.786;2022-08-05T07:29:02;17.38;;;15.48;;
15116;SDS011;7659;51.038;13.786;2022-08-05T07:31:27;17.38;;;16.02;;
15116;SDS011;7659;51.038;13.786;2022-08-05T07:33:53;20.02;;;15.77;;
15116;SDS011;7659;51.038;13.786;2022-08-05T07:36:18;17.70;;;16.27;;
15116;SDS011;7659;51.038;13.786;2022-08-05T07:38:44;18.13;;;16.23;;
15116;SDS011;7659;51.038;13.786;2022-08-05T07:41:11;20.40;;;17.90;;
15116;SDS011;7659;51.038;13.786;2022-08-05T07:43:36;19.08;;;17.05;;
15116;SDS011;7659;51.038;13.786;2022-08-05T07:46:02;21.40;;;18.13;;
15116;SDS011;7659;51.038;13.786;2022-08-05T07:48:27;23.25;;;17.90;;
15116;SDS011;7659;51.038;13.786;2022-08-05T07:50:53;21.70;;;18.83;;
15116;SDS011;7659;51.038;13.786;2022-08-05T07:53:18;20.08;;;18.35;;
15116;SDS011;7659;51.038;13.786;2022-08-05T07:55:44;24.30;;;18.90;;
15116;SDS011;7659;51.038;13.786;2022-08-05T07:58:09;20.67;;;19.05;;
15116;SDS011;7659;51.038;13.786;2022-08-05T08:00:35;21.42;;;19.60;;
15116;SDS011;7659;51.038;13.786;2022-08-05T08:03:00;19.52;;;18.08;;
15116;SDS011;7659;51.038;13.786;2022-08-05T08:05:26;20.80;;;18.90;;
15116;SDS011;7659;51.038;13.786;2022-08-05T08:07:52;20.00;;;18.45;;
15116;SDS011;7659;51.038;13.786;2022-08-05T08:10:20;23.55;;;20.40;;
15116;SDS011;7659;51.038;13.786;2022-08-05T08:12:45;21.95;;;19.25;;
15116;SDS011;7659;51.038;13.786;2022-08-05T08:15:11;19.48;;;17.80;;
15116;SDS011;7659;51.038;13.786;2022-08-05T08:17:36;21.88;;;20.20;;
15116;SDS011;7659;51.038;13.786;2022-08-05T08:20:02;19.63;;;18.25;;
15116;SDS011;7659;51.038;13.786;2022-08-05T08:22:30;19.77;;;17.60;;
15116;SDS011;7659;51.038;13.786;2022-08-05T08:24:55;20.08;;;18.30;;
15116;SDS011;7659;51.038;13.786;2022-08-05T08:27:21;19.80;;;18.10;;
15116;SDS011;7659;51.038;13.786;2022-08-05T08:29:47;19.85;;;18.13;;
15116;SDS011;7659;51.038;13.786;2022-08-05T08:32:12;18.90;;;17.23;;
15116;SDS011;7659;51.038;13.786;2022-08-05T08:34:38;18.40;;;17.00;;
15116;SDS011;7659;51.038;13.786;2022-08-05T08:37:03;18.55;;;17.10;;
15116;SDS011;7659;51.038;13.786;2022-08-05T08:39:29;19.02;;;17.45;;
15116;SDS011;7659;51.038;13.786;2022-08-05T08:41:54;18.92;;;17.10;;
15116;SDS011;7659;51.038;13.786;2022-08-05T08:44:22;19.75;;;17.30;;
15116;SDS011;7659;51.038;13.786;2022-08-05T08:46:48;18.83;;;17.13;;
15116;SDS011;7659;51.038;13.786;2022-08-05T08:49:14;18.25;;;17.15;;
15116;SDS011;7659;51.038;13.786;2022-08-05T08:51:40;21.58;;;16.42;;
15116;SDS011;7659;51.038;13.786;2022-08-05T08:54:07;19.38;;;16.17;;
15116;SDS011;7659;51.038;13.786;2022-08-05T08:56:32;16.90;;;15.27;;
15116;SDS011;7659;51.038;13.786;2022-08-05T08:58:59;17.63;;;16.13;;
15116;SDS011;7659;51.038;13.786;2022-08-05T09:01:25;18.30;;;16.42;;
15116;SDS011;7659;51.038;13.786;2022-08-05T09:03:52;17.60;;;16.05;;
15116;SDS011;7659;51.038;13.786;2022-08-05T09:06:17;16.73;;;15.63;;
15116;SDS011;7659;51.038;13.786;2022-08-05T09:08:43;17.05;;;15.60;;
15116;SDS011;7659;51.038;13.786;2022-08-05T09:11:08;19.42;;;17.70;;
15116;SDS011;7659;51.038;13.786;2022-08-05T09:13:36;18.85;;;16.40;;
15116;SDS011;7659;51.038;13.786;2022-08-05T09:16:02;18.42;;;16.77;;
15116;SDS011;7659;51.038;13.786;2022-08-05T09:18:28;18.02;;;16.50;;
15116;SDS011;7659;51.038;13.786;2022-08-05T09:20:53;17.02;;;15.73;;
15116;SDS011;7659;51.038;13.786;2022-08-05T09:23:19;18.50;;;16.90;;
15116;SDS011;7659;51.038;13.786;2022-08-05T09:25:46;25.27;;;15.55;;
15116;SDS011;7659;51.038;13.786;2022-08-05T09:28:16;17.63;;;16.23;;
15116;SDS011;7659;51.038;13.786;2022-08-05T09:31:04;18.65;;;15.88;;
15116;SDS011;7659;51.038;13.786;2022-08-05T09:33:29;16.95;;;15.82;;
15116;SDS011;7659;51.038;13.786;2022-08-05T09:35:55;17.80;;;16.40;;
15116;SDS011;7659;51.038;13.786;2022-08-05T09:38:21;20.27;;;15.80;;
15116;SDS011;7659;51.038;13.786;2022-08-05T09:40:46;16.95;;;15.75;;
15116;SDS011;7659;51.038;13.786;2022-08-05T09:43:28;18.02;;;16.45;;
15116;SDS011;7659;51.038;13.786;2022-08-05T09:45:54;17.73;;;15.65;;
15116;SDS011;7659;51.038;13.786;2022-08-05T09:48:20;18.73;;;15.77;;
15116;SDS011;7659;51.038;13.786;2022-08-05T09:50:49;22.02;;;15.32;;
15116;SDS011;7659;51.038;13.786;2022-08-05T09:53:16;17.27;;;15.63;;
15116;SDS011;7659;51.038;13.786;2022-08-05T09:55:41;17.08;;;15.80;;
15116;SDS011;7659;51.038;13.786;2022-08-05T09:58:11;16.90;;;15.55;;
15116;SDS011;7659;51.038;13.786;2022-08-05T10:00:37;18.75;;;17.33;;
15116;SDS011;7659;51.038;13.786;2022-08-05T10:03:09;18.98;;;17.13;;
15116;SDS011;7659;51.038;13.786;2022-08-05T10:05:35;17.38;;;16.25;;
15116;SDS011;7659;51.038;13.786;2022-08-05T10:08:02;17.25;;;15.23;;
15116;SDS011;7659;51.038;13.786;2022-08-05T10:10:35;18.00;;;16.27;;
15116;SDS011;7659;51.038;13.786;2022-08-05T10:13:02;16.83;;;15.20;;
15116;SDS011;7659;51.038;13.786;2022-08-05T10:15:29;17.48;;;15.70;;
15116;SDS011;7659;51.038;13.786;2022-08-05T10:20:27;16.42;;;15.18;;
15116;SDS011;7659;51.038;13.786;2022-08-05T10:22:56;16.42;;;15.10;;
15116;SDS011;7659;51.038;13.786;2022-08-05T10:25:22;16.33;;;15.00;;
15116;SDS011;7659;51.038;13.786;2022-08-05T10:27:47;17.77;;;15.95;;
15116;SDS011;7659;51.038;13.786;2022-08-05T10:30:13;15.82;;;14.55;;
15116;SDS011;7659;51.038;13.786;2022-08-05T10:32:39;17.00;;;15.73;;
15116;SDS011;7659;51.038;13.786;2022-08-05T10:35:05;17.20;;;16.02;;
15116;SDS011;7659;51.038;13.786;2022-08-05T10:37:31;19.00;;;17.60;;
15116;SDS011;7659;51.038;13.786;2022-08-05T10:39:58;17.10;;;15.82;;
15116;SDS011;7659;51.038;13.786;2022-08-05T10:42:25;19.27;;;17.35;;
15116;SDS011;7659;51.038;13.786;2022-08-05T10:44:53;18.80;;;17.25;;
15116;SDS011;7659;51.038;13.786;2022-08-05T10:47:19;18.00;;;16.55;;
15116;SDS011;7659;51.038;13.786;2022-08-05T10:52:37;18.88;;;17.15;;
15116;SDS011;7659;51.038;13.786;2022-08-05T10:55:05;18.52;;;16.88;;
15116;SDS011;7659;51.038;13.786;2022-08-05T10:57:31;18.42;;;16.70;;
15116;SDS011;7659;51.038;13.786;2022-08-05T11:00:06;20.02;;;17.65;;
15116;SDS011;7659;51.038;13.786;2022-08-05T11:02:31;17.27;;;16.15;;
15116;SDS011;7659;51.038;13.786;2022-08-05T11:04:57;17.60;;;15.98;;
15116;SDS011;7659;51.038;13.786;2022-08-05T11:07:22;17.38;;;15.80;;
15116;SDS011;7659;51.038;13.786;2022-08-05T11:09:52;12.27;;;11.07;;
15116;SDS011;7659;51.038;13.786;2022-08-05T11:17:49;18.77;;;17.08;;
15116;SDS011;7659;51.038;13.786;2022-08-05T11:20:32;18.63;;;16.52;;
15116;SDS011;7659;51.038;13.786;2022-08-05T11:22:59;17.45;;;16.35;;
15116;SDS011;7659;51.038;13.786;2022-08-05T11:25:37;18.25;;;17.05;;
15116;SDS011;7659;51.038;13.786;2022-08-05T11:33:25;18.40;;;16.65;;
15116;SDS011;7659;51.038;13.786;2022-08-05T11:35:51;18.25;;;16.65;;
15116;SDS011;7659;51.038;13.786;2022-08-05T11:43:29;17.77;;;16.45;;
15116;SDS011;7659;51.038;13.786;2022-08-05T11:45:55;17.48;;;16.13;;
15116;SDS011;7659;51.038;13.786;2022-08-05T11:48:20;17.20;;;15.55;;
15116;SDS011;7659;51.038;13.786;2022-08-05T11:50:46;18.77;;;17.10;;
15116;SDS011;7659;51.038;13.786;2022-08-05T11:53:12;18.55;;;16.95;;
15116;SDS011;7659;51.038;13.786;2022-08-05T11:55:51;19.33;;;17.63;;
15116;SDS011;7659;51.038;13.786;2022-08-05T11:58:29;17.63;;;16.52;;
15116;SDS011;7659;51.038;13.786;2022-08-05T12:03:27;14.18;;;13.18;;
15116;SDS011;7659;51.038;13.786;2022-08-05T12:05:52;11.75;;;10.32;;
15116;SDS011;7659;51.038;13.786;2022-08-05T12:08:18;15.50;;;14.30;;
15116;SDS011;7659;51.038;13.786;2022-08-05T12:10:44;15.07;;;13.80;;
15116;SDS011;7659;51.038;13.786;2022-08-05T12:13:09;14.35;;;13.45;;
15116;SDS011;7659;51.038;13.786;2022-08-05T12:15:35;14.27;;;12.40;;
15116;SDS011;7659;51.038;13.786;2022-08-05T12:18:00;13.60;;;12.48;;
15116;SDS011;7659;51.038;13.786;2022-08-05T12:20:26;13.57;;;12.27;;
15116;SDS011;7659;51.038;13.786;2022-08-05T12:23:05;13.20;;;12.15;;
15116;SDS011;7659;51.038;13.786;2022-08-05T12:25:32;12.85;;;11.70;;
15116;SDS011;7659;51.038;13.786;2022-08-05T12:28:12;14.05;;;12.88;;
15116;SDS011;7659;51.038;13.786;2022-08-05T12:30:37;13.18;;;12.30;;
15116;SDS011;7659;51.038;13.786;2022-08-05T12:33:03;13.40;;;12.35;;
15116;SDS011;7659;51.038;13.786;2022-08-05T12:35:28;13.48;;;12.32;;
15116;SDS011;7659;51.038;13.786;2022-08-05T12:37:54;13.18;;;11.93;;
15116;SDS011;7659;51.038;13.786;2022-08-05T12:40:19;12.70;;;11.52;;
15116;SDS011;7659;51.038;13.786;2022-08-05T12:42:49;11.10;;;10.30;;
15116;SDS011;7659;51.038;13.786;2022-08-05T12:45:14;11.52;;;10.65;;
15116;SDS011;7659;51.038;13.786;2022-08-05T12:47:40;12.10;;;10.40;;
15116;SDS011;7659;51.038;13.786;2022-08-05T12:50:13;12.45;;;10.80;;
15116;SDS011;7659;51.038;13.786;2022-08-05T12:52:39;13.05;;;11.77;;
15116;SDS011;7659;51.038;13.786;2022-08-05T12:55:17;12.27;;;11.23;;
15116;SDS011;7659;51.038;13.786;2022-08-05T12:57:43;12.02;;;10.95;;
15116;SDS011;7659;51.038;13.786;2022-08-05T13:00:18;12.10;;;11.05;;
15116;SDS011;7659;51.038;13.786;2022-08-05T13:02:44;12.02;;;10.95;;
15116;SDS011;7659;51.038;13.786;2022-08-05T13:05:10;13.30;;;11.38;;
15116;SDS011;7659;51.038;13.786;2022-08-05T13:07:35;12.35;;;11.55;;
15116;SDS011;7659;51.038;13.786;2022-08-05T13:10:03;14.10;;;11.35;;
15116;SDS011;7659;51.038;13.786;2022-08-05T13:12:37;13.05;;;12.07;;
15116;SDS011;7659;51.038;13.786;2022-08-05T13:15:03;12.50;;;11.70;;
15116;SDS011;7659;51.038;13.786;2022-08-05T13:17:30;11.32;;;10.35;;
15116;SDS011;7659;51.038;13.786;2022-08-05T13:22:40;10.20;;;9.20;;
15116;SDS011;7659;51.038;13.786;2022-08-05T13:25:07;10.40;;;8.85;;
15116;SDS011;7659;51.038;13.786;2022-08-05T13:27:33;9.70;;;8.45;;
15116;SDS011;7659;51.038;13.786;2022-08-05T13:29:59;13.65;;;9.15;;
15116;SDS011;7659;51.038;13.786;2022-08-05T13:32:25;9.70;;;9.00;;
15116;SDS011;7659;51.038;13.786;2022-08-05T13:34:51;13.10;;;9.63;;
15116;SDS011;7659;51.038;13.786;2022-08-05T13:37:17;10.63;;;9.65;;
15116;SDS011;7659;51.038;13.786;2022-08-05T13:39:43;10.75;;;9.95;;
15116;SDS011;7659;51.038;13.786;2022-08-05T13:42:09;11.75;;;10.27;;
15116;SDS011;7659;51.038;13.786;2022-08-05T13:44:34;11.38;;;10.50;;
15116;SDS011;7659;51.038;13.786;2022-08-05T13:47:00;10.27;;;8.90;;
15116;SDS011;7659;51.038;13.786;2022-08-05T13:49:25;11.63;;;10.88;;
15116;SDS011;7659;51.038;13.786;2022-08-05T13:51:51;14.23;;;10.68;;
15116;SDS011;7659;51.038;13.786;2022-08-05T13:54:16;11.18;;;10.13;;
15116;SDS011;7659;51.038;13.786;2022-08-05T13:56:42;9.32;;;8.52;;
15116;SDS011;7659;51.038;13.786;2022-08-05T13:59:08;9.73;;;8.63;;
15116;SDS011;7659;51.038;13.786;2022-08-05T14:01:34;12.48;;;8.18;;
15116;SDS011;7659;51.038;13.786;2022-08-05T14:03:59;9.18;;;7.57;;
15116;SDS011;7659;51.038;13.786;2022-08-05T14:06:43;8.07;;;7.50;;
15116;SDS011;7659;51.038;13.786;2022-08-05T14:09:09;11.10;;;8.30;;
15116;SDS011;7659;51.038;13.786;2022-08-05T14:11:34;9.95;;;8.15;;
15116;SDS011;7659;51.038;13.786;2022-08-05T14:14:03;8.40;;;7.53;;
15116;SDS011;7659;51.038;13.786;2022-08-05T14:16:29;7.68;;;6.93;;
15116;SDS011;7659;51.038;13.786;2022-08-05T14:18:54;8.65;;;7.57;;
15116;SDS011;7659;51.038;13.786;2022-08-05T14:21:20;8.60;;;7.85;;
15116;SDS011;7659;51.038;13.786;2022-08-05T14:23:45;9.70;;;8.85;;
15116;SDS011;7659;51.038;13.786;2022-08-05T14:26:10;16.83;;;15.55;;
15116;SDS011;7659;51.038;13.786;2022-08-05T14:28:36;12.32;;;11.40;;
15116;SDS011;7659;51.038;13.786;2022-08-05T14:31:01;13.00;;;11.38;;
15116;SDS011;7659;51.038;13.786;2022-08-05T14:33:27;13.10;;;12.50;;
15116;SDS011;7659;51.038;13.786;2022-08-05T14:35:57;13.52;;;12.77;;
15116;SDS011;7659;51.038;13.786;2022-08-05T14:38:23;14.10;;;13.10;;
15116;SDS011;7659;51.038;13.786;2022-08-05T14:40:48;11.25;;;10.60;;
15116;SDS011;7659;51.038;13.786;2022-08-05T14:43:14;11.02;;;10.45;;
15116;SDS011;7659;51.038;13.786;2022-08-05T14:45:39;8.52;;;8.13;;
15116;SDS011;7659;51.038;13.786;2022-08-05T14:48:05;8.93;;;8.52;;
15116;SDS011;7659;51.038;13.786;2022-08-05T14:50:30;11.05;;;10.65;;
15116;SDS011;7659;51.038;13.786;2022-08-05T14:52:56;11.05;;;10.65;;
15116;SDS011;7659;51.038;13.786;2022-08-05T14:55:23;11.63;;;11.23;;